createdAt,value
2023-04-29T00:00:58.918Z,98098.72
2023-04-29T00:06:03.161Z,98098.28
2023-04-29T00:11:07.638Z,98096.16
2023-04-29T00:16:10.904Z,98108.53
2023-04-29T00:21:13.603Z,98112.41
2023-04-29T00:26:17.770Z,98101.94
2023-04-29T00:31:23.718Z,98107.72
2023-04-29T00:36:27.581Z,98109.47
2023-04-29T00:41:32.021Z,98115.13
2023-04-29T00:46:34.929Z,98120.47
2023-04-29T00:51:38.218Z,98120.59
2023-04-29T00:56:45.549Z,98117.78
2023-04-29T01:01:48.774Z,98118.78
2023-04-29T01:07:06.274Z,98129.59
2023-04-29T01:12:18.408Z,98126.81
2023-04-29T01:17:26.226Z,98127.94
2023-04-29T01:22:29.760Z,98136.81
2023-04-29T01:27:37.966Z,98130.72
2023-04-29T01:32:58.634Z,98143.41
2023-04-29T01:38:13.002Z,98139.50
2023-04-29T01:43:19.367Z,98134.47
2023-04-29T01:48:25.292Z,98137.56
2023-04-29T01:53:28.937Z,98137.69
2023-04-29T01:58:33.245Z,98138.16
2023-04-29T02:03:54.721Z,98135.63
2023-04-29T02:08:57.753Z,98143.25
2023-04-29T02:14:01.866Z,98148.88
2023-04-29T02:19:05.230Z,98143.22
2023-04-29T02:24:08.252Z,98150.03
2023-04-29T02:29:12.618Z,98155.50
2023-04-29T02:34:15.641Z,98162.69
2023-04-29T02:39:18.339Z,98166.94
2023-04-29T02:44:22.900Z,98171.44
2023-04-29T02:49:25.659Z,98174.25
2023-04-29T02:54:28.416Z,98175.25
2023-04-29T02:59:32.748Z,98178.63
2023-04-29T03:04:35.460Z,98181.56
2023-04-29T03:09:38.262Z,98184.81
2023-04-29T03:14:42.448Z,98184.25
2023-04-29T03:19:45.451Z,98185.50
2023-04-29T03:24:49.104Z,98187.06
2023-04-29T03:29:54.116Z,98197.31
2023-04-29T03:34:57.707Z,98195.91
2023-04-29T03:40:10.707Z,98191.56
2023-04-29T03:45:15.603Z,98206.16
2023-04-29T03:50:18.451Z,98198.84
2023-04-29T03:55:22.698Z,98193.09
2023-04-29T04:00:27.056Z,98201.34
2023-04-29T04:05:32.055Z,98205.81
2023-04-29T04:10:41.101Z,98204.84
2023-04-29T04:15:56.784Z,98215.78
2023-04-29T04:20:59.704Z,98209.75
2023-04-29T04:26:02.739Z,98222.78
2023-04-29T04:31:27.013Z,98227.56
2023-04-29T04:36:29.945Z,98225.59
2023-04-29T04:41:33.196Z,98240.19
2023-04-29T04:46:38.189Z,98241.16
2023-04-29T04:51:59.585Z,98252.38
2023-04-29T04:57:05.208Z,98254.06
2023-04-29T05:02:09.619Z,98261.19
2023-04-29T05:07:12.985Z,98263.16
2023-04-29T05:12:38.923Z,98276.03
2023-04-29T05:17:43.418Z,98278.69
2023-04-29T05:22:46.260Z,98286.97
2023-04-29T05:27:50.128Z,98290.16
2023-04-29T05:32:57.066Z,98297.56
2023-04-29T05:38:00.038Z,98306.53
2023-04-29T05:43:08.586Z,98298.44
2023-04-29T05:48:14.839Z,98310.94
2023-04-29T05:53:17.590Z,98308.84
2023-04-29T05:58:20.425Z,98319.81
2023-04-29T06:03:25.012Z,98324.16
2023-04-29T06:08:41.887Z,98334.28
2023-04-29T06:13:52.552Z,98336.34
2023-04-29T06:18:57.281Z,98341.13
2023-04-29T06:24:00.032Z,98341.13
2023-04-29T06:29:03.578Z,98353.47
2023-04-29T06:34:07.848Z,98350.00
2023-04-29T06:39:15.845Z,98370.44
2023-04-29T06:44:28.846Z,98366.47
2023-04-29T06:49:54.190Z,98384.69
2023-04-29T06:54:58.125Z,98397.75
2023-04-29T07:00:00.871Z,98392.41
2023-04-29T07:05:05.400Z,98406.94
2023-04-29T07:10:09.757Z,98409.78
2023-04-29T07:15:13.891Z,98413.44
2023-04-29T07:20:18.911Z,98419.59
2023-04-29T07:25:23.948Z,98421.38
2023-04-29T07:30:27.276Z,98438.34
2023-04-29T07:35:32.544Z,98433.00
2023-04-29T07:40:35.398Z,98438.88
2023-04-29T07:45:39.918Z,98443.00
2023-04-29T07:50:44.474Z,98447.59
2023-04-29T07:55:47.583Z,98453.47
2023-04-29T08:00:50.476Z,98461.72
2023-04-29T08:05:56.330Z,98465.38
2023-04-29T08:10:59.389Z,98475.88
2023-04-29T08:16:02.536Z,98478.09
2023-04-29T08:21:06.709Z,98491.91
2023-04-29T08:26:12.992Z,98490.09
2023-04-29T08:31:19.689Z,98494.16
2023-04-29T08:36:23.976Z,98503.31
2023-04-29T08:41:26.833Z,98504.28
2023-04-29T08:46:30.749Z,98511.03
2023-04-29T08:51:35.203Z,98516.13
2023-04-29T08:56:38.409Z,98520.84
2023-04-29T09:01:43.322Z,98522.00
2023-04-29T09:06:48.794Z,98526.94
2023-04-29T09:11:51.780Z,98527.91
2023-04-29T09:16:54.664Z,98533.28
2023-04-29T09:21:59.230Z,98540.31
2023-04-29T09:27:03.283Z,98552.88
2023-04-29T09:32:20.599Z,98561.88
2023-04-29T09:37:29.168Z,98559.63
2023-04-29T09:42:43.425Z,98575.09
2023-04-29T09:47:46.823Z,98570.63
2023-04-29T09:52:51.403Z,98563.00
2023-04-29T09:57:55.003Z,98570.13
2023-04-29T10:03:00.231Z,98579.97
2023-04-29T10:08:04.947Z,98579.84
2023-04-29T10:13:07.782Z,98592.13
2023-04-29T10:18:15.528Z,98589.84
2023-04-29T10:23:22.429Z,98587.31
2023-04-29T10:28:27.256Z,98591.22
2023-04-29T10:33:33.431Z,98591.63
2023-04-29T10:38:44.502Z,98598.25
2023-04-29T10:43:47.851Z,98599.38
2023-04-29T10:48:57.227Z,98600.94
2023-04-29T10:54:03.322Z,98606.19
2023-04-29T10:59:06.739Z,98606.31
2023-04-29T11:04:11.076Z,98602.72
2023-04-29T11:09:20.054Z,98602.38
2023-04-29T11:14:27.144Z,98604.50
2023-04-29T11:19:33.560Z,98607.34
2023-04-29T11:24:38.134Z,98609.41
2023-04-29T11:29:41.061Z,98626.00
2023-04-29T11:34:44.084Z,98620.09
2023-04-29T11:39:48.986Z,98621.38
2023-04-29T11:44:57.118Z,98630.06
2023-04-29T11:50:07.810Z,98626.88
2023-04-29T11:55:12.688Z,98626.19
2023-04-29T12:00:16.763Z,98632.38
2023-04-29T12:05:20.255Z,98632.50
2023-04-29T12:10:24.763Z,98626.66
2023-04-29T12:15:29.309Z,98630.25
2023-04-29T12:20:33.045Z,98631.06
2023-04-29T12:25:37.308Z,98622.28
2023-04-29T12:30:40.577Z,98628.41
2023-04-29T12:35:43.336Z,98640.59
2023-04-29T12:40:47.940Z,98637.63
2023-04-29T12:45:50.620Z,98638.69
2023-04-29T12:50:53.424Z,98649.66
2023-04-29T12:55:57.786Z,98641.09
2023-04-29T13:01:01.021Z,98655.28
2023-04-29T13:06:04.415Z,98649.56
2023-04-29T13:11:08.951Z,98649.88
2023-04-29T13:16:11.889Z,98659.03
2023-04-29T13:21:14.861Z,98657.84
2023-04-29T13:26:19.523Z,98669.56
2023-04-29T13:31:23.285Z,98663.63
2023-04-29T13:36:28.169Z,98663.06
2023-04-29T13:41:34.943Z,98668.16
2023-04-29T13:46:38.218Z,98674.63
2023-04-29T14:02:23.059Z,98676.63
2023-04-29T14:07:16.798Z,98678.88
2023-04-29T14:12:21.215Z,98676.19
2023-04-29T14:17:24.966Z,98682.78
2023-04-29T14:22:27.949Z,98689.84
2023-04-29T14:27:32.011Z,98689.66
2023-04-29T14:32:34.836Z,98691.78
2023-04-29T14:37:37.602Z,98702.75
2023-04-29T14:42:41.710Z,98704.38
2023-04-29T14:47:44.459Z,98708.94
2023-04-29T14:52:47.319Z,98718.56
2023-04-29T14:57:51.600Z,98723.06
2023-04-29T15:02:56.701Z,98719.44
2023-04-29T15:08:01.469Z,98719.78
2023-04-29T15:13:06.635Z,98723.53
2023-04-29T15:18:09.922Z,98722.56
2023-04-29T15:23:12.910Z,98726.94
2023-04-29T15:28:18.315Z,98725.50
2023-04-29T15:33:21.389Z,98726.44
2023-04-29T15:38:25.158Z,98734.47
2023-04-29T15:43:29.720Z,98732.41
2023-04-29T15:48:34.192Z,98746.41
2023-04-29T15:53:36.992Z,98740.88
2023-04-29T15:58:41.150Z,98747.22
2023-04-29T16:03:43.938Z,98742.13
2023-04-29T16:08:46.943Z,98750.91
2023-04-29T16:13:51.401Z,98749.22
2023-04-29T16:18:56.309Z,98740.56
2023-04-29T16:23:59.094Z,98748.00
2023-04-29T16:29:03.645Z,98750.34
2023-04-29T16:34:06.730Z,98751.50
2023-04-29T16:39:10.101Z,98759.06
2023-04-29T16:44:14.563Z,98758.44
2023-04-29T16:49:24.278Z,98761.25
2023-04-29T16:54:27.642Z,98751.28
2023-04-29T16:59:31.770Z,98762.06
2023-04-29T17:04:34.710Z,98767.53
2023-04-29T17:09:37.687Z,98772.44
2023-04-29T17:14:41.940Z,98777.78
2023-04-29T17:19:45.273Z,98772.84
2023-04-29T17:24:48.636Z,98764.38
2023-04-29T17:29:53.392Z,98772.28
2023-04-29T17:34:56.996Z,98775.66
2023-04-29T17:39:59.693Z,98777.91
2023-04-29T17:45:04.078Z,98779.00
2023-04-29T17:50:08.025Z,98776.97
2023-04-29T17:55:11.835Z,98773.84
2023-04-29T18:00:18.407Z,98780.56
2023-04-29T18:05:21.940Z,98783.75
2023-04-29T18:10:25.446Z,98797.13
2023-04-29T18:15:30.074Z,98802.44
2023-04-29T18:20:33.440Z,98802.28
2023-04-29T18:25:37.769Z,98793.06
2023-04-29T18:30:44.463Z,98811.75
2023-04-29T18:35:47.333Z,98811.56
2023-04-29T18:40:50.122Z,98802.97
2023-04-29T18:45:54.193Z,98793.88
2023-04-29T18:50:59.229Z,98792.34
2023-04-29T18:56:02.499Z,98796.34
2023-04-29T19:01:07.383Z,98806.31
2023-04-29T19:06:10.288Z,98803.66
2023-04-29T19:11:13.452Z,98805.47
2023-04-29T19:16:17.734Z,98810.34
2023-04-29T19:21:20.659Z,98829.88
2023-04-29T19:26:24.849Z,98838.97
2023-04-29T19:31:29.521Z,98834.63
2023-04-29T19:36:33.182Z,98848.69
2023-04-29T19:41:36.083Z,98844.22
2023-04-29T19:46:41.155Z,98842.63
2023-04-29T19:51:44.362Z,98849.91
2023-04-29T19:56:47.035Z,98857.19
2023-04-29T20:01:52.190Z,98850.94
2023-04-29T20:06:55.203Z,98852.72
2023-04-29T20:11:57.901Z,98856.63
2023-04-29T20:17:02.209Z,98861.38
2023-04-29T20:22:05.133Z,98857.03
2023-04-29T20:27:08.979Z,98858.38
2023-04-29T20:32:14.057Z,98858.63
2023-04-29T20:37:17.539Z,98864.31
2023-04-29T20:42:20.527Z,98868.66
2023-04-29T20:47:24.791Z,98866.97
2023-04-29T20:52:29.573Z,98872.56
2023-04-29T20:57:33.098Z,98876.44
2023-04-29T21:02:38.582Z,98879.84
2023-04-29T21:07:41.386Z,98877.19
2023-04-29T21:12:44.518Z,98883.72
2023-04-29T21:17:48.768Z,98873.56
2023-04-29T21:22:52.004Z,98873.31
2023-04-29T21:27:54.801Z,98880.09
2023-04-29T21:33:00.419Z,98889.06
2023-04-29T21:38:03.366Z,98885.91
2023-04-29T21:43:06.191Z,98894.66
2023-04-29T21:48:15.527Z,98890.72
2023-04-29T21:53:18.671Z,98899.94
2023-04-29T21:58:22.450Z,98900.06
2023-04-29T22:03:26.749Z,98902.75
2023-04-29T22:08:29.509Z,98898.47
2023-04-29T22:13:32.252Z,98901.63
2023-04-29T22:18:36.583Z,98907.16
2023-04-29T22:23:39.408Z,98903.50
2023-04-29T22:28:42.160Z,98907.72
2023-04-29T22:33:46.367Z,98920.31
2023-04-29T22:38:49.245Z,98916.69
2023-04-29T22:43:57.032Z,98925.41
2023-04-29T22:49:01.195Z,98924.78
2023-04-29T22:54:04.129Z,98925.72
2023-04-29T22:59:06.890Z,98929.59
2023-04-29T23:04:11.708Z,98922.72
2023-04-29T23:09:14.437Z,98920.97
2023-04-29T23:14:17.279Z,98928.88
2023-04-29T23:19:21.385Z,98931.75
2023-04-29T23:24:24.229Z,98932.97
2023-04-29T23:29:26.976Z,98932.31
2023-04-29T23:34:31.117Z,98940.44
2023-04-29T23:39:33.885Z,98932.56
2023-04-29T23:44:37.204Z,98937.06
2023-04-29T23:49:41.499Z,98936.31
2023-04-29T23:54:44.235Z,98945.13
2023-04-29T23:59:47.014Z,98940.91
